Time;durP1;ratioP1;P1;durP2;ratioP2;P2;SDS_P1;SDS_P2;PMS_P1;PMS_P2;Temp;Humidity;BMP_temperature;BMP_pressure;BME280_temperature;BME280_humidity;BME280_pressure;Samples;Min_cycle;Max_cycle;Signal;HPM_P1;HPM_P2
2021/01/29 00:00:39;;;;;;;53.63;21.40;;;;;;;10.02;65.86;99881.16;4804728;29;123329;-68
2021/01/29 00:03:17;;;;;;;45.15;20.80;;;;;;;10.00;65.90;99870.69;4787866;29;123724;-68
2021/01/29 00:05:54;;;;;;;53.20;21.52;;;;;;;10.00;65.81;99880.41;4809159;29;114584;-69
2021/01/29 00:08:23;;;;;;;52.75;20.60;;;;;;;10.01;65.75;99866.25;4806585;29;114614;-68
2021/01/29 00:10:51;;;;;;;55.28;21.15;;;;;;;10.02;65.96;99857.34;4801480;29;123461;-69
2021/01/29 00:13:18;;;;;;;55.83;21.08;;;;;;;10.03;66.05;99854.63;4803703;29;124111;-68
2021/01/29 00:15:45;;;;;;;75.32;23.08;;;;;;;10.05;65.84;99854.53;4805120;29;116196;-68
2021/01/29 00:18:12;;;;;;;64.88;22.33;;;;;;;10.06;66.07;99843.03;4810542;29;115750;-69
2021/01/29 00:20:39;;;;;;;104.38;24.25;;;;;;;10.07;65.90;99828.84;4793922;29;123478;-67
2021/01/29 00:23:06;;;;;;;81.07;23.00;;;;;;;10.09;66.08;99826.97;4801849;29;124645;-67
2021/01/29 00:25:36;;;;;;;78.93;22.83;;;;;;;10.10;65.97;99823.38;4805608;29;114056;-67
2021/01/29 00:28:04;;;;;;;71.57;23.48;;;;;;;10.11;66.19;99809.19;4802544;29;113085;-67
2021/01/29 00:30:32;;;;;;;57.47;20.48;;;;;;;10.13;66.24;99796.72;4804132;29;125605;-67
2021/01/29 00:32:59;;;;;;;92.38;24.67;;;;;;;10.15;66.15;99789.53;4809431;29;123758;-68
2021/01/29 00:35:29;;;;;;;87.25;23.88;;;;;;;10.17;66.04;99782.41;4808374;29;114490;-68
2021/01/29 00:37:57;;;;;;;86.07;23.70;;;;;;;10.18;66.04;99772.66;4810138;29;114200;-67
2021/01/29 00:40:24;;;;;;;87.22;23.52;;;;;;;10.18;66.01;99768.19;4814258;29;125737;-69
2021/01/29 00:42:51;;;;;;;71.47;21.70;;;;;;;10.21;66.03;99767.16;4807732;29;124736;-68
2021/01/29 00:45:22;;;;;;;90.20;24.27;;;;;;;10.24;66.26;99756.41;4792272;29;114403;-68
2021/01/29 00:47:49;;;;;;;105.32;24.17;;;;;;;10.26;66.05;99750.06;4812779;29;114034;-68
2021/01/29 00:50:16;;;;;;;93.47;24.85;;;;;;;10.28;66.08;99752.59;4809588;29;124089;-68
2021/01/29 00:52:42;;;;;;;82.45;23.58;;;;;;;10.30;66.01;99746.31;4807045;29;122609;-69
2021/01/29 00:55:10;;;;;;;90.05;22.95;;;;;;;10.30;66.22;99741.03;4803645;29;113304;-69
2021/01/29 00:57:44;;;;;;;74.43;22.98;;;;;;;10.30;66.01;99735.75;4805731;29;113652;-68
2021/01/29 01:00:34;;;;;;;71.05;22.15;;;;;;;10.32;66.00;99723.25;4809655;29;125738;-69
2021/01/29 01:03:04;;;;;;;90.68;23.55;;;;;;;10.31;66.17;99716.25;4808978;29;124079;-69
2021/01/29 01:05:30;;;;;;;62.67;21.85;;;;;;;10.33;66.26;99719.66;4810942;29;115354;-68
2021/01/29 01:07:58;;;;;;;76.88;23.10;;;;;;;10.36;66.37;99702.75;4807987;29;114442;-68
2021/01/29 01:10:43;;;;;;;60.67;21.87;;;;;;;10.38;66.20;99705.28;4807398;29;125270;-68
2021/01/29 01:13:28;;;;;;;61.93;22.23;;;;;;;10.39;66.26;99696.41;4806595;29;124023;-68
2021/01/29 01:16:13;;;;;;;81.90;22.58;;;;;;;10.40;66.36;99687.53;4812932;29;114174;-68
2021/01/29 01:18:42;;;;;;;80.97;23.90;;;;;;;10.40;66.44;99687.53;4810736;29;113690;-68
2021/01/29 01:21:27;;;;;;;59.10;23.03;;;;;;;10.43;66.30;99676.72;4815397;29;122322;-67
2021/01/29 01:24:13;;;;;;;89.18;27.35;;;;;;;10.44;66.56;99675.81;4808573;29;123998;-68
2021/01/29 01:26:40;;;;;;;72.47;29.08;;;;;;;10.45;66.64;99669.53;4807353;29;114510;-68
2021/01/29 01:29:33;;;;;;;91.97;28.83;;;;;;;10.49;66.57;99663.09;4808802;29;113922;-68
2021/01/29 01:32:00;;;;;;;74.45;27.70;;;;;;;10.53;66.82;99651.41;4807348;29;123503;-68
2021/01/29 01:34:46;;;;;;;102.70;27.75;;;;;;;10.59;66.69;99645.69;4807658;29;122755;-68
2021/01/29 01:37:20;;;;;;;89.20;27.95;;;;;;;10.63;66.68;99630.47;4806783;29;114366;-68
2021/01/29 01:40:15;;;;;;;76.65;25.30;;;;;;;10.67;66.81;99627.50;4809709;29;115870;-68
2021/01/29 01:42:41;;;;;;;62.22;25.17;;;;;;;10.73;66.97;99620.97;4788039;29;123324;-68
2021/01/29 01:45:26;;;;;;;133.02;33.03;;;;;;;10.78;67.03;99612.72;4801233;29;123431;-68
2021/01/29 01:48:05;;;;;;;77.18;29.15;;;;;;;10.83;66.84;99605.31;4807276;29;114944;-68
2021/01/29 01:50:50;;;;;;;118.90;30.35;;;;;;;10.88;66.99;99600.56;4804774;29;114612;-68
2021/01/29 01:53:26;;;;;;;91.93;26.75;;;;;;;10.92;66.87;99594.09;4803359;29;123472;-68
2021/01/29 01:56:06;;;;;;;109.72;29.30;;;;;;;10.96;67.01;99582.34;4804106;29;122391;-68
2021/01/29 01:58:56;;;;;;;85.95;26.67;;;;;;;10.98;66.88;99577.81;4804108;29;116048;-68
2021/01/29 02:01:36;;;;;;;122.72;30.13;;;;;;;11.03;66.85;99570.38;4801531;29;114040;-69
2021/01/29 02:04:29;;;;;;;95.18;27.65;;;;;;;11.07;67.03;99560.44;4805367;29;124334;-68
2021/01/29 02:07:42;;;;;;;94.55;25.80;;;;;;;11.10;66.88;99555.78;4778935;29;124703;-67
2021/01/29 02:10:49;;;;;;;95.05;23.08;;;;;;;11.14;66.91;99544.97;4808508;29;114134;-67
2021/01/29 02:13:24;;;;;;;116.50;25.48;;;;;;;11.18;66.77;99533.22;4813941;29;113211;-68
2021/01/29 02:16:19;;;;;;;137.40;26.02;;;;;;;11.21;66.78;99525.06;4804129;29;125288;-68
2021/01/29 02:18:53;;;;;;;;;;;;;;;11.24;66.60;99514.22;4802459;29;124123;-68
2021/01/29 02:21:39;;;;;;;76.75;20.80;;;;;;;11.28;66.79;99511.28;4804730;29;113513;-67
2021/01/29 02:24:25;;;;;;;81.03;21.30;;;;;;;11.31;66.93;99499.59;4806195;29;114915;-68
2021/01/29 02:27:25;;;;;;;128.00;24.88;;;;;;;11.34;66.95;99493.22;4800230;29;124000;-67
2021/01/29 02:30:22;;;;;;;109.93;22.30;;;;;;;11.35;66.79;99479.88;4799684;29;124080;-67
2021/01/29 02:33:26;;;;;;;82.55;20.48;;;;;;;11.39;66.92;99480.50;4805376;29;113618;-67
2021/01/29 02:36:28;;;;;;;57.70;17.45;;;;;;;11.43;67.07;99466.94;4798037;29;113616;-68
2021/01/29 02:39:09;;;;;;;64.53;18.27;;;;;;;11.47;67.35;99457.81;4801869;29;123382;-68
2021/01/29 02:42:21;;;;;;;64.22;18.00;;;;;;;11.52;67.30;99449.53;4800982;29;123027;-68
2021/01/29 02:45:28;;;;;;;46.85;15.77;;;;;;;11.57;67.40;99435.94;4783138;29;114152;-68
2021/01/29 02:48:40;;;;;;;56.88;16.50;;;;;;;11.62;67.55;99428.50;4797357;29;114180;-68
2021/01/29 02:51:31;;;;;;;51.15;14.43;;;;;;;11.66;67.52;99409.59;4794178;29;124681;-68
2021/01/29 02:54:23;;;;;;;39.10;13.90;;;;;;;11.69;67.54;99403.22;4804823;29;124660;-68
2021/01/29 02:57:59;;;;;;;36.35;13.05;;;;;;;11.75;67.53;99392.16;4803139;29;116029;-68
2021/01/29 03:01:02;;;;;;;29.42;12.20;;;;;;;11.80;67.46;99379.41;4778980;29;115639;-67
2021/01/29 03:03:38;;;;;;;31.42;12.52;;;;;;;11.84;67.50;99359.66;4797821;29;125468;-68
2021/01/29 03:06:29;;;;;;;25.83;11.07;;;;;;;11.91;67.49;99364.56;4799282;29;123442;-67
2021/01/29 03:09:15;;;;;;;21.03;10.57;;;;;;;11.94;67.38;99353.69;4799664;29;113656;-68
2021/01/29 03:12:12;;;;;;;19.77;9.40;;;;;;;11.98;67.69;99344.53;4793522;29;114897;-68
2021/01/29 03:15:08;;;;;;;18.02;9.60;;;;;;;12.00;67.65;99329.38;4797840;29;124812;-68
2021/01/29 03:18:29;;;;;;;18.77;9.13;;;;;;;12.03;67.35;99326.47;4765891;29;124600;-67
2021/01/29 03:21:20;;;;;;;13.25;7.57;;;;;;;12.08;67.55;99319.03;4808139;29;114068;-67
2021/01/29 03:24:14;;;;;;;14.18;7.95;;;;;;;12.10;67.52;99306.47;4806230;29;115171;-68
2021/01/29 03:27:06;;;;;;;14.43;7.95;;;;;;;12.11;67.72;99302.88;4803718;29;125230;-67
2021/01/29 03:30:03;;;;;;;13.50;8.32;;;;;;;12.13;67.63;99294.78;4804824;29;124828;-68
2021/01/29 03:32:58;;;;;;;15.55;8.27;;;;;;;12.15;67.75;99296.38;4786273;29;114836;-66
2021/01/29 03:35:56;;;;;;;15.65;7.65;;;;;;;12.18;67.74;99288.16;4807358;29;115092;-67
2021/01/29 03:38:48;;;;;;;13.05;7.25;;;;;;;12.22;67.91;99279.00;4803477;29;125363;-68
2021/01/29 03:41:40;;;;;;;13.77;7.82;;;;;;;12.25;67.57;99262.81;4802448;29;124738;-67
2021/01/29 03:44:45;;;;;;;12.60;7.65;;;;;;;12.31;67.86;99260.66;4788825;29;114816;-68
2021/01/29 03:47:36;;;;;;;10.73;7.38;;;;;;;12.35;67.53;99256.81;4806005;29;114520;-67
2021/01/29 03:50:28;;;;;;;14.23;7.55;;;;;;;12.39;67.81;99258.25;4803158;29;124886;-68
2021/01/29 03:53:41;;;;;;;11.50;6.72;;;;;;;12.41;67.67;99248.34;4764475;29;124787;-68
2021/01/29 03:56:35;;;;;;;;;;;;;;;12.43;67.54;99243.75;4805619;29;116146;-68
2021/01/29 03:59:41;;;;;;;9.82;6.85;;;;;;;12.48;67.49;99225.66;4799522;29;115398;-67
2021/01/29 04:02:35;;;;;;;11.20;7.35;;;;;;;12.49;67.53;99226.50;4804943;29;124881;-67
2021/01/29 04:05:44;;;;;;;12.57;7.47;;;;;;;12.50;67.63;99215.78;4802513;29;123811;-68
2021/01/29 04:08:46;;;;;;;11.40;7.90;;;;;;;12.52;67.79;99197.91;4803450;29;115145;-67
2021/01/29 04:11:40;;;;;;;13.32;7.43;;;;;;;12.56;67.86;99196.69;4802380;29;114751;-68
2021/01/29 04:14:39;;;;;;;10.57;6.70;;;;;;;12.58;67.84;99200.09;4782747;29;123642;-67
2021/01/29 04:17:13;;;;;;;12.80;6.75;;;;;;;12.62;67.74;99190.03;4801710;29;124383;-67
2021/01/29 04:19:43;;;;;;;11.32;6.75;;;;;;;12.64;67.73;99183.66;4801891;29;114555;-68
2021/01/29 04:22:18;;;;;;;11.15;6.18;;;;;;;12.68;67.76;99173.63;4806439;29;113350;-68
2021/01/29 04:24:53;;;;;;;11.52;6.55;;;;;;;12.71;67.71;99167.22;4800371;29;124311;-68
2021/01/29 04:27:27;;;;;;;11.15;6.15;;;;;;;12.75;67.79;99163.34;4784495;29;123538;-68
2021/01/29 04:30:11;;;;;;;9.77;6.05;;;;;;;12.76;67.76;99159.72;4801741;29;114389;-68
2021/01/29 04:32:42;;;;;;;9.50;5.45;;;;;;;12.79;67.61;99156.78;4769703;29;114025;-68
2021/01/29 04:35:13;;;;;;;8.38;5.70;;;;;;;12.80;67.53;99155.84;4800065;29;123831;-68
2021/01/29 04:38:06;;;;;;;9.93;5.78;;;;;;;12.84;67.61;99146.66;4768947;29;125129;-68
2021/01/29 04:40:52;;;;;;;8.15;5.75;;;;;;;12.85;67.45;99148.34;4800820;29;114849;-68
2021/01/29 04:43:32;;;;;;;;;;;;;;;12.87;67.29;99146.41;4806245;29;114163;-68
2021/01/29 04:46:17;;;;;;;7.65;4.95;;;;;;;12.91;67.31;99153.16;4802698;29;124405;-68
2021/01/29 04:48:55;;;;;;;7.28;5.10;;;;;;;12.91;67.26;99147.84;4799231;29;124285;-68
2021/01/29 04:51:31;;;;;;;8.77;5.05;;;;;;;12.92;67.09;99154.00;4800246;29;115578;-68
2021/01/29 04:54:35;;;;;;;9.30;5.18;;;;;;;12.91;67.29;99142.53;4797454;29;115148;-68
2021/01/29 04:57:32;;;;;;;12.60;5.57;;;;;;;12.91;67.22;99139.88;4800126;29;124346;-68
2021/01/29 05:00:30;;;;;;;8.25;5.28;;;;;;;12.92;67.16;99141.56;4802858;29;124810;-68
2021/01/29 05:04:13;;;;;;;8.38;5.35;;;;;;;12.93;66.95;99129.97;4791848;29;114306;-68
2021/01/29 05:07:20;;;;;;;9.10;5.32;;;;;;;12.95;67.04;99133.31;4801171;29;114051;-68
2021/01/29 05:10:32;;;;;;;12.43;5.28;;;;;;;12.95;67.03;99128.00;4790047;29;124663;-68
2021/01/29 05:13:18;;;;;;;11.52;5.25;;;;;;;12.96;66.92;99123.53;4795976;29;123317;-68
2021/01/29 05:16:21;;;;;;;12.20;5.47;;;;;;;12.96;66.98;99124.41;4802640;29;113626;-68
2021/01/29 05:19:18;;;;;;;11.88;6.22;;;;;;;12.94;66.93;99110.41;4803927;29;113273;-68
2021/01/29 05:21:59;;;;;;;13.60;6.93;;;;;;;12.92;67.06;99117.66;4786379;29;123415;-68
2021/01/29 05:24:54;;;;;;;13.00;6.90;;;;;;;12.92;67.17;99116.78;4802952;29;124488;-68
2021/01/29 05:27:42;;;;;;;14.70;6.82;;;;;;;12.89;67.12;99101.97;4807598;29;114555;-68
2021/01/29 05:30:34;;;;;;;9.93;6.43;;;;;;;12.89;67.03;99107.28;4808611;29;114303;-68
2021/01/29 05:33:15;;;;;;;11.32;6.70;;;;;;;12.90;67.02;99098.31;4787481;29;123814;-68
2021/01/29 05:36:02;;;;;;;9.68;6.68;;;;;;;12.92;67.06;99096.41;4804831;29;124419;-68
2021/01/29 05:38:41;;;;;;;11.63;7.25;;;;;;;12.95;67.08;99093.47;4810405;23;115176;-68
2021/01/29 05:41:33;;;;;;;9.23;6.07;;;;;;;12.94;67.19;99099.78;4802660;29;112863;-70
2021/01/29 05:44:14;;;;;;;9.82;5.72;;;;;;;12.93;67.18;99103.38;4813625;29;123493;-71
2021/01/29 05:46:55;;;;;;;9.77;4.97;;;;;;;12.92;67.22;99107.03;4820642;29;125710;-70
2021/01/29 05:49:26;;;;;;;7.32;4.28;;;;;;;12.92;67.09;99112.34;4818551;29;115249;-70
2021/01/29 05:52:08;;;;;;;6.40;3.75;;;;;;;12.91;67.27;99117.78;4819478;29;115317;-70
2021/01/29 05:54:48;;;;;;;4.53;3.78;;;;;;;12.88;67.00;99124.16;4790714;29;122898;-70
2021/01/29 05:57:55;;;;;;;4.40;3.60;;;;;;;12.84;67.29;99130.72;4820424;29;124532;-70
2021/01/29 06:00:43;;;;;;;4.30;3.50;;;;;;;12.84;67.02;99136.03;4798595;29;112958;-70
2021/01/29 06:03:23;;;;;;;5.15;3.85;;;;;;;12.84;67.15;99146.66;4819185;29;113851;-70
2021/01/29 06:06:31;;;;;;;4.15;3.28;;;;;;;12.80;67.00;99145.22;4818054;29;124275;-70
2021/01/29 06:09:37;;;;;;;4.00;3.13;;;;;;;12.78;67.01;99133.88;4818940;29;124101;-70
2021/01/29 06:12:31;;;;;;;5.63;3.50;;;;;;;12.77;66.98;99145.47;4801852;29;114074;-70
2021/01/29 06:15:10;;;;;;;4.35;3.05;;;;;;;12.78;67.01;99136.53;4818459;29;114096;-70
2021/01/29 06:18:07;;;;;;;4.20;2.85;;;;;;;12.76;66.81;99138.47;4819436;29;124022;-69
2021/01/29 06:20:56;;;;;;;5.53;2.85;;;;;;;12.76;66.93;99143.78;4802351;29;122927;-70
2021/01/29 06:23:52;;;;;;;3.92;2.70;;;;;;;12.73;66.83;99138.72;4817307;29;114222;-69
2021/01/29 06:26:33;;;;;;;5.25;3.15;;;;;;;12.72;66.78;99134.38;4819938;29;113977;-70
2021/01/29 06:29:24;;;;;;;4.10;2.90;;;;;;;12.72;66.66;99143.19;4817538;29;124383;-70
2021/01/29 06:32:05;;;;;;;4.75;2.63;;;;;;;12.70;66.65;99149.59;4818935;29;123885;-70
2021/01/29 06:35:03;;;;;;;5.50;2.88;;;;;;;12.70;66.79;99154.91;4818207;29;113950;-70
2021/01/29 06:37:29;;;;;;;4.57;2.90;;;;;;;12.69;66.54;99142.59;4785509;29;113863;-70
2021/01/29 06:40:12;;;;;;;6.90;3.15;;;;;;;12.65;66.54;99148.13;4818246;29;124019;-70
2021/01/29 06:43:04;;;;;;;5.30;3.08;;;;;;;12.65;66.55;99153.44;4818844;29;124109;-70
2021/01/29 06:45:45;;;;;;;6.50;3.50;;;;;;;12.63;66.64;99150.09;4815795;29;115555;-70
2021/01/29 06:48:50;;;;;;;6.88;4.30;;;;;;;12.62;66.61;99153.72;4816827;29;114396;-70
2021/01/29 06:51:55;;;;;;;6.90;4.07;;;;;;;12.61;66.64;99160.00;4819503;29;123233;-70
2021/01/29 06:54:37;;;;;;;7.15;3.88;;;;;;;12.58;66.58;99152.28;4800462;29;123179;-70
2021/01/29 06:57:38;;;;;;;6.78;3.70;;;;;;;12.57;66.56;99161.22;4803078;29;113461;-69
2021/01/29 07:00:42;;;;;;;8.65;3.78;;;;;;;12.58;66.72;99165.56;4813600;29;114214;-69
2021/01/29 07:03:35;;;;;;;9.75;3.92;;;;;;;12.58;66.53;99172.66;4803543;29;123645;-69
2021/01/29 07:06:16;;;;;;;10.52;3.70;;;;;;;12.57;66.71;99182.44;4800922;29;123669;-70
2021/01/29 07:08:57;;;;;;;7.40;3.85;;;;;;;12.58;66.62;99173.53;4815508;29;115632;-70
2021/01/29 07:11:35;;;;;;;9.77;4.00;;;;;;;12.59;66.74;99185.81;4816368;29;114445;-70
2021/01/29 07:14:22;;;;;;;9.57;3.63;;;;;;;12.59;66.69;99185.81;4800006;29;123355;-70
2021/01/29 07:17:02;;;;;;;10.27;3.55;;;;;;;12.60;66.60;99176.91;4802637;29;123227;-70
2021/01/29 07:19:47;;;;;;;12.13;3.55;;;;;;;12.60;66.68;99176.91;4816809;29;114397;-70
2021/01/29 07:22:32;;;;;;;7.75;2.97;;;;;;;12.62;66.72;99180.28;4801713;29;112958;-70
2021/01/29 07:25:08;;;;;;;11.50;3.17;;;;;;;12.60;66.75;99182.22;4801674;29;123008;-70
2021/01/29 07:27:39;;;;;;;10.43;2.90;;;;;;;12.60;66.68;99186.66;4818030;29;124539;-70
2021/01/29 07:30:18;;;;;;;7.68;2.78;;;;;;;12.61;66.80;99183.88;4818880;29;114147;-69
2021/01/29 07:32:52;;;;;;;9.57;3.20;;;;;;;12.61;66.86;99204.31;4818284;29;114097;-69
2021/01/29 07:35:38;;;;;;;7.75;3.00;;;;;;;12.60;66.72;99187.53;4797425;29;123630;-69
2021/01/29 07:38:08;;;;;;;;;;;;;;;12.60;66.79;99198.16;4814552;29;96815;-70
2021/01/29 07:40:56;;;;;;;9.57;2.97;;;;;;;12.60;66.78;99198.16;4816919;29;115279;-70
2021/01/29 07:43:53;;;;;;;10.95;3.00;;;;;;;12.58;66.72;99210.72;4817589;29;114503;-70
2021/01/29 07:46:32;;;;;;;17.52;3.10;;;;;;;12.59;66.81;99207.06;4799216;29;124332;-70
2021/01/29 07:49:30;;;;;;;18.30;2.85;;;;;;;12.59;66.88;99209.72;4816746;29;124218;-70
2021/01/29 07:52:10;;;;;;;17.55;3.70;;;;;;;12.60;66.82;99219.41;4814946;29;114684;-70
2021/01/29 07:54:51;;;;;;;19.38;3.70;;;;;;;12.61;66.86;99226.38;4816670;29;114285;-70
2021/01/29 07:57:25;;;;;;;22.25;3.90;;;;;;;12.61;66.83;99226.38;4817640;29;124530;-70
2021/01/29 08:00:11;;;;;;;30.45;4.07;;;;;;;12.63;66.71;99235.06;4818060;29;124780;-70
2021/01/29 08:03:13;;;;;;;28.05;4.57;;;;;;;12.64;66.77;99227.97;4814993;29;114864;-70
2021/01/29 08:05:48;;;;;;;21.90;3.65;;;;;;;12.64;66.63;99247.41;4816910;29;114070;-70
2021/01/29 08:08:20;;;;;;;32.80;4.47;;;;;;;12.65;66.74;99237.59;4799409;29;123198;-70
2021/01/29 08:10:52;;;;;;;26.75;4.00;;;;;;;12.64;66.60;99236.78;4816211;29;123460;-70
2021/01/29 08:13:37;;;;;;;24.63;3.83;;;;;;;12.64;66.65;99247.41;4800832;29;113149;-70
2021/01/29 08:16:27;;;;;;;27.83;4.37;;;;;;;12.62;66.54;99249.34;4801145;29;113802;-70
2021/01/29 08:19:21;;;;;;;25.17;4.20;;;;;;;12.60;66.64;99261.91;4818066;29;125661;-71
2021/01/29 08:22:26;;;;;;;23.25;4.60;;;;;;;12.60;66.52;99282.28;4794226;29;124114;-70
2021/01/29 08:25:17;;;;;;;26.33;4.15;;;;;;;12.59;66.52;99281.44;4817139;29;115062;-71
2021/01/29 08:28:27;;;;;;;31.48;4.80;;;;;;;12.55;66.34;99272.03;4815175;29;113592;-72
2021/01/29 08:31:15;;;;;;;28.83;4.32;;;;;;;12.55;66.33;99285.31;4813048;29;124458;-71
2021/01/29 08:34:19;;;;;;;30.45;4.43;;;;;;;12.51;66.31;99278.56;4813841;29;124951;-72
2021/01/29 08:36:55;;;;;;;;;;;;;;;12.48;66.32;99289.41;4798470;29;113382;-71
2021/01/29 08:39:28;;;;;;;29.23;4.87;;;;;;;12.51;66.08;99294.47;4815996;29;114553;-71
2021/01/29 08:42:05;;;;;;;29.30;4.88;;;;;;;12.48;66.11;99286.75;4814548;29;123546;-71
2021/01/29 08:45:15;;;;;;;30.02;4.57;;;;;;;12.46;66.16;99294.00;4813895;29;125272;-71
2021/01/29 08:48:29;;;;;;;27.15;4.60;;;;;;;12.45;66.03;99289.63;4798888;29;114829;-71
2021/01/29 08:51:07;;;;;;;34.05;4.80;;;;;;;12.45;65.94;99301.13;4790888;29;114252;-71
2021/01/29 08:53:54;;;;;;;24.30;4.05;;;;;;;12.46;65.82;99312.56;4800891;29;124418;-71
2021/01/29 08:56:35;;;;;;;29.75;4.38;;;;;;;12.45;65.98;99295.81;4819055;29;122725;-71
2021/01/29 08:59:04;;;;;;;36.85;4.97;;;;;;;12.47;65.83;99295.69;4800952;29;113825;-71
2021/01/29 09:01:39;;;;;;;29.83;4.78;;;;;;;12.47;65.73;99298.34;4820669;29;114606;-71
2021/01/29 09:04:17;;;;;;;26.57;4.60;;;;;;;12.48;65.63;99305.34;4818693;29;124015;-71
2021/01/29 09:06:46;;;;;;;27.75;4.57;;;;;;;12.47;65.59;99308.97;4801053;29;122756;-71
2021/01/29 09:09:18;;;;;;;35.47;4.70;;;;;;;12.49;65.50;99322.97;4804299;29;113441;-71
2021/01/29 09:11:54;;;;;;;30.48;4.95;;;;;;;12.49;65.35;99317.66;4819775;29;114511;-72
2021/01/29 09:14:27;;;;;;;23.15;4.32;;;;;;;12.49;65.26;99315.00;4817697;29;124073;-71
2021/01/29 09:17:13;;;;;;;32.08;5.03;;;;;;;12.48;65.24;99334.53;4820352;29;125093;-71
2021/01/29 09:19:55;;;;;;;27.95;4.25;;;;;;;12.48;65.28;99331.88;4802777;29;114925;-71
2021/01/29 09:22:29;;;;;;;25.30;4.95;;;;;;;12.50;65.11;99337.91;4818838;29;114405;-71
2021/01/29 09:25:06;;;;;;;36.40;5.05;;;;;;;12.50;65.15;99335.25;4819350;29;124015;-71
2021/01/29 09:28:07;;;;;;;32.25;4.38;;;;;;;12.49;65.17;99328.28;4820516;29;123710;-71
2021/01/29 09:30:57;;;;;;;29.67;4.60;;;;;;;12.50;65.09;99334.44;4803335;29;115016;-71
2021/01/29 09:33:33;;;;;;;33.60;4.50;;;;;;;12.50;64.96;99340.56;4802883;29;114918;-71
2021/01/29 09:36:04;;;;;;;26.20;4.35;;;;;;;12.51;64.97;99342.28;4816760;29;124011;-71
2021/01/29 09:38:37;;;;;;;34.25;5.00;;;;;;;12.53;64.99;99343.00;4820389;29;124551;-71
2021/01/29 09:41:15;;;;;;;28.00;4.63;;;;;;;12.56;64.96;99347.22;4802892;29;113123;-71
2021/01/29 09:43:46;;;;;;;28.63;4.70;;;;;;;12.59;64.83;99355.81;4819591;29;114038;-71
2021/01/29 09:46:20;;;;;;;27.52;4.88;;;;;;;12.63;64.81;99354.59;4819817;29;124239;-71
2021/01/29 09:48:50;;;;;;;27.35;4.93;;;;;;;12.66;64.72;99356.19;4818618;29;123693;-71
2021/01/29 09:51:44;;;;;;;26.85;4.93;;;;;;;12.66;64.80;99359.69;4820519;29;113716;-70
2021/01/29 09:54:20;;;;;;;29.15;4.28;;;;;;;12.70;64.63;99372.75;4819251;29;113845;-71
2021/01/29 09:56:56;;;;;;;27.35;4.57;;;;;;;12.71;64.60;99374.41;4818786;29;124410;-72
2021/01/29 09:59:38;;;;;;;30.77;4.93;;;;;;;12.74;64.71;99395.44;4818481;29;124291;-72
2021/01/29 10:02:19;;;;;;;30.10;5.03;;;;;;;12.75;64.71;99381.16;4816310;29;114400;-72
2021/01/29 10:05:07;;;;;;;30.10;5.55;;;;;;;12.79;64.78;99379.97;4793949;29;112951;-72
2021/01/29 10:07:37;;;;;;;30.05;4.57;;;;;;;12.84;64.69;99383.94;4810485;29;124899;-72
2021/01/29 10:10:58;;;;;;;27.67;4.60;;;;;;;12.89;64.67;99378.28;4814419;29;122050;-72
2021/01/29 10:13:49;;;;;;;22.10;4.53;;;;;;;12.97;64.54;99402.44;4726230;29;113848;-72
2021/01/29 10:16:45;;;;;;;26.98;4.75;;;;;;;13.00;64.32;99402.22;4818154;29;112990;-72
2021/01/29 10:19:18;;;;;;;26.08;4.47;;;;;;;13.07;64.05;99386.63;4790160;29;123084;-71
2021/01/29 10:21:56;;;;;;;28.23;4.68;;;;;;;13.11;64.01;99393.41;4817664;29;124177;-72
2021/01/29 10:24:44;;;;;;;28.38;4.40;;;;;;;13.16;64.06;99401.00;4802327;29;114478;-72
2021/01/29 10:27:19;;;;;;;32.25;4.90;;;;;;;13.21;64.08;99409.47;4802723;29;114441;-72
2021/01/29 10:29:57;;;;;;;33.50;5.15;;;;;;;13.25;63.88;99409.09;4812699;29;123480;-72
2021/01/29 10:32:29;;;;;;;27.67;4.78;;;;;;;13.29;63.76;99407.03;4794995;29;124369;-72
2021/01/29 10:35:08;;;;;;;22.50;4.38;;;;;;;13.32;63.46;99417.47;4815039;29;114218;-72
2021/01/29 10:37:53;;;;;;;30.33;5.53;;;;;;;13.35;63.31;99416.38;4814190;29;114008;-72
2021/01/29 10:40:43;;;;;;;30.90;4.60;;;;;;;13.38;63.20;99416.97;4816011;29;124720;-72
2021/01/29 10:43:19;;;;;;;22.42;4.90;;;;;;;13.40;63.00;99431.00;4816841;29;124649;-73
2021/01/29 10:45:58;;;;;;;25.00;4.05;;;;;;;13.43;62.81;99425.44;4802338;29;114547;-72
2021/01/29 10:48:34;;;;;;;31.90;4.93;;;;;;;13.46;62.77;99426.16;4803127;29;113426;-72
2021/01/29 10:51:25;;;;;;;21.38;4.10;;;;;;;13.47;62.80;99425.19;4796730;29;123486;-72
2021/01/29 10:53:57;;;;;;;28.60;4.20;;;;;;;13.51;62.55;99438.13;4809214;29;124019;-72
2021/01/29 10:56:32;;;;;;;26.70;4.57;;;;;;;13.52;62.49;99418.53;4818383;29;115128;-72
2021/01/29 10:59:13;;;;;;;24.05;4.15;;;;;;;13.53;62.58;99435.34;4810041;29;113229;-72
2021/01/29 11:01:46;;;;;;;30.30;4.70;;;;;;;13.58;62.52;99438.47;4798408;29;124081;-72
2021/01/29 11:04:26;;;;;;;21.73;4.00;;;;;;;13.60;62.26;99431.25;4816687;29;123966;-72
2021/01/29 11:07:00;;;;;;;26.58;4.60;;;;;;;13.62;62.39;99435.47;4819088;29;114305;-72
2021/01/29 11:09:31;;;;;;;30.98;4.95;;;;;;;13.64;62.31;99435.34;4818184;29;114322;-72
2021/01/29 11:12:06;;;;;;;21.45;4.50;;;;;;;13.65;62.05;99433.50;4810748;29;124991;-72
2021/01/29 11:15:00;;;;;;;25.63;4.17;;;;;;;13.66;61.98;99437.88;4815343;29;124425;-71
2021/01/29 11:17:34;;;;;;;24.33;4.15;;;;;;;13.65;61.83;99437.00;4774617;29;114348;-71
2021/01/29 11:20:11;;;;;;;27.75;4.80;;;;;;;13.66;61.95;99444.03;4816891;29;115213;-72
2021/01/29 11:22:50;;;;;;;22.75;4.35;;;;;;;13.63;62.13;99446.94;4816044;29;124734;-71
2021/01/29 11:25:43;;;;;;;28.63;4.47;;;;;;;13.59;62.24;99451.66;4816391;29;123783;-72
2021/01/29 11:28:28;;;;;;;25.83;4.18;;;;;;;13.56;62.37;99451.06;4816426;29;113027;-72
2021/01/29 11:31:05;;;;;;;25.73;4.63;;;;;;;13.50;62.43;99454.22;4816027;29;113966;-72
2021/01/29 11:33:37;;;;;;;27.08;4.47;;;;;;;13.46;62.69;99452.75;4782657;29;123214;-72
2021/01/29 11:36:17;;;;;;;34.05;5.40;;;;;;;13.42;62.87;99455.66;4817912;29;123897;-72
2021/01/29 11:39:16;;;;;;;30.63;4.80;;;;;;;13.37;62.96;99457.84;4817571;29;114810;-72
2021/01/29 11:41:51;;;;;;;32.60;4.85;;;;;;;13.33;63.03;99461.69;4867001;23;113936;-86
2021/01/29 11:45:05;;;;;;;34.17;5.00;;;;;;;13.27;63.23;99443.53;4833494;28;123516;-89
2021/01/29 11:47:41;;;;;;;25.55;4.35;;;;;;;13.25;63.44;99450.81;4839215;28;123537;-86
2021/01/29 11:57:02;;;;;;;27.35;4.53;;;;;;;13.09;63.62;99447.63;4882697;23;99118;-81
2021/01/29 12:06:40;;;;;;;29.58;4.60;;;;;;;12.93;64.10;99448.84;4902675;23;96156;-82
2021/01/29 12:09:14;;;;;;;22.88;4.15;;;;;;;12.93;64.11;99448.84;4845980;28;124939;-83
2021/01/29 12:11:41;;;;;;;28.90;4.43;;;;;;;12.93;64.34;99458.63;4822400;28;123433;-84
2021/01/29 12:38:24;;;;;;;21.63;3.75;;;;;;;12.87;64.66;99438.69;4845952;23;95950;-89
2021/01/29 13:10:56;;;;;;;26.92;4.07;;;;;;;13.11;64.98;99427.09;4892842;23;99633;-88
2021/01/29 13:13:38;;;;;;;24.98;4.72;;;;;;;13.13;64.67;99433.13;4850179;28;114962;-85
2021/01/29 14:06:04;;;;;;;31.00;5.10;;;;;;;12.86;65.01;99426.34;1459283;23;98840;-86
2021/01/29 14:08:33;;;;;;;32.47;4.93;;;;;;;12.88;64.83;99419.09;4824353;28;121848;-88
2021/01/29 14:28:34;;;;;;;30.10;4.72;;;;;;;12.86;64.53;99426.34;4858544;28;95938;-84
2021/01/29 14:43:54;;;;;;;26.63;4.38;;;;;;;12.79;64.25;99441.06;4875914;23;97611;-83
2021/01/29 14:52:55;;;;;;;22.95;4.32;;;;;;;12.91;64.45;99434.81;4884924;23;96268;-81
2021/01/29 14:55:37;;;;;;;24.42;4.25;;;;;;;12.98;64.24;99433.38;4826418;28;113897;-84
2021/01/29 14:58:13;;;;;;;25.30;5.05;;;;;;;13.03;64.13;99444.50;4827710;28;123885;-84
2021/01/29 15:00:55;;;;;;;32.63;4.75;;;;;;;13.08;63.97;99438.00;4819357;29;123837;-86
2021/01/29 15:04:08;;;;;;;32.13;5.30;;;;;;;13.13;63.88;99446.44;4817468;29;114434;-84
2021/01/29 15:06:36;;;;;;;28.40;4.68;;;;;;;13.14;63.63;99445.47;4808327;29;114957;-84
2021/01/29 15:09:10;;;;;;;26.50;4.43;;;;;;;13.14;63.45;99456.09;4810661;29;122882;-83